Главная страница
METAR-TAF:

METAR-TAF

Аэропорты :

Свальбард

Лонгйир, Норвегия

широта: 78-15N, долгота: 015-28E, высота над уровнем моря: 2 м

Текущие метеонаблюдения

Эта сводка был подготовлена 46 минут назад, в 18:50 UTC
Ветер 8 Узел от восточно-юго-восточный
Температура -25°C
Влажность 76%
Давление 1004 hPa
Видимость 10 км и более
небольшая облачность на высоте 100 фута
туман в окрестностях

METAR: ENSB 281850Z 12008KT 9999 VCFG FEW001 M25/M28 Q1004 RMK WIND 1400FT 06006KT

Время: 20:36 (19:36 UTC)

Прогноз

Прогноз действительный с 28-го 18 UTC до 29-го 18 UTC
Ветер 8 Узел от восточный
Видимость 10 км и более
небольшая облачность на высоте 100 фута
туман в окрестностях
Вероятность 30% :
временами
С 28-го 18 UTC до 29-го 06 UTC
Видимость: 4000 м
клочья тумана

TAF: ENSB 2818/2918 10008KT 9999 VCFG FEW001 PROB30 TEMPO 2818/2906 4000 BCFG

Метеонаблюдения и прогнозы для более 4000 аэропортов (сводки METAR и TAF).

Имеющиеся станции представлены на карте желтыми и красными точками.

Чтобы увидеть название станции, наведите на нее мышь.

Затем щелкните, чтобы увидеть метеонаблюдения и метеопрогнозы.

Управление картой: чтобы увеличить масштаб, щелкните зеленые кнопки с черным крестиком; чтобы уменьшить масштаб, щелкните зеленую кнопку с тире; для просмотра соседних карт щелкайте зеленые стрелки.


METAR-TAF: